createdAt,value
2018-07-23T00:00:49.455Z,16.73
2018-07-23T00:03:17.135Z,15.27
2018-07-23T00:05:44.811Z,15.63
2018-07-23T00:08:12.397Z,17.07
2018-07-23T00:10:39.938Z,15.77
2018-07-23T00:13:07.568Z,17.83
2018-07-23T00:15:35.198Z,20.23
2018-07-23T00:18:02.830Z,13.87
2018-07-23T00:20:30.338Z,15.77
2018-07-23T00:22:57.938Z,17.33
2018-07-23T00:25:25.553Z,14.23
2018-07-23T00:27:53.033Z,20.00
2018-07-23T00:30:20.679Z,18.00
2018-07-23T00:32:48.274Z,15.77
2018-07-23T00:35:15.946Z,19.03
2018-07-23T00:37:43.799Z,19.17
2018-07-23T00:40:11.316Z,15.13
2018-07-23T00:42:38.945Z,16.40
2018-07-23T00:45:06.926Z,12.87
2018-07-23T00:47:34.560Z,14.30
2018-07-23T00:50:02.106Z,13.47
2018-07-23T00:52:29.801Z,14.30
2018-07-23T00:54:57.478Z,12.13
2018-07-23T00:57:25.066Z,15.07
2018-07-23T00:59:52.656Z,13.70
2018-07-23T01:02:20.293Z,13.97
2018-07-23T01:04:47.898Z,11.83
2018-07-23T01:07:15.531Z,12.60
2018-07-23T01:09:43.187Z,15.53
2018-07-23T01:12:10.819Z,11.80
2018-07-23T01:14:38.463Z,13.20
2018-07-23T01:17:06.038Z,10.77
2018-07-23T01:19:33.628Z,12.13
2018-07-23T01:22:01.139Z,14.40
2018-07-23T01:24:28.774Z,15.40
2018-07-23T01:26:56.365Z,14.60
2018-07-23T01:29:23.865Z,11.43
2018-07-23T01:31:51.470Z,10.60
2018-07-23T01:34:19.085Z,13.03
2018-07-23T01:36:46.675Z,10.70
2018-07-23T01:39:14.330Z,11.47
2018-07-23T01:41:41.915Z,13.90
2018-07-23T01:44:09.593Z,13.50
2018-07-23T01:46:37.108Z,12.17
2018-07-23T01:49:04.734Z,11.80
2018-07-23T01:51:32.288Z,13.13
2018-07-23T01:53:59.869Z,10.07
2018-07-23T01:56:27.421Z,9.83
2018-07-23T01:58:55.018Z,11.33
2018-07-23T02:01:22.605Z,11.70
2018-07-23T02:03:50.240Z,10.27
2018-07-23T02:06:17.733Z,11.67
2018-07-23T02:08:45.298Z,10.37
2018-07-23T02:11:12.929Z,9.80
2018-07-23T02:13:40.409Z,10.77
2018-07-23T02:16:08.040Z,12.90
2018-07-23T02:18:35.645Z,11.77
2018-07-23T02:21:03.260Z,10.60
2018-07-23T02:23:30.888Z,13.23
2018-07-23T02:25:58.518Z,11.60
2018-07-23T02:28:26.129Z,10.70
2018-07-23T02:30:53.741Z,14.07
2018-07-23T02:33:21.446Z,14.97
2018-07-23T02:35:49.053Z,12.60
2018-07-23T02:38:16.689Z,13.37
2018-07-23T02:40:44.323Z,15.33
2018-07-23T02:43:11.829Z,14.40
2018-07-23T02:45:39.434Z,13.17
2018-07-23T02:48:07.109Z,14.63
2018-07-23T02:50:34.766Z,14.27
2018-07-23T02:53:02.408Z,10.40
2018-07-23T02:55:29.998Z,11.27
2018-07-23T02:57:57.628Z,10.97
2018-07-23T03:00:25.288Z,15.13
2018-07-23T03:02:52.884Z,14.40
2018-07-23T03:05:20.519Z,10.00
2018-07-23T03:07:48.143Z,13.60
2018-07-23T03:10:15.769Z,10.77
2018-07-23T03:12:43.231Z,10.70
2018-07-23T03:15:10.881Z,11.23
2018-07-23T03:17:38.581Z,13.77
2018-07-23T03:20:06.271Z,14.70
2018-07-23T03:22:33.891Z,13.27
2018-07-23T03:25:01.506Z,14.40
2018-07-23T03:27:29.133Z,11.37
2018-07-23T03:29:56.734Z,11.30
2018-07-23T03:32:24.380Z,11.47
2018-07-23T03:34:51.990Z,12.70
2018-07-23T03:37:19.600Z,10.27
2018-07-23T03:39:47.170Z,10.30
2018-07-23T03:42:14.801Z,12.90
2018-07-23T03:44:42.290Z,13.80
2018-07-23T03:47:10.240Z,15.10
2018-07-23T03:49:37.816Z,12.10
2018-07-23T03:52:05.615Z,15.27
2018-07-23T03:54:33.225Z,10.90
2018-07-23T03:57:00.833Z,11.43
2018-07-23T03:59:28.494Z,13.00
2018-07-23T04:01:56.177Z,14.00
2018-07-23T04:04:23.799Z,11.50
2018-07-23T04:06:51.410Z,12.60
2018-07-23T04:09:19.173Z,13.67
2018-07-23T04:11:46.801Z,11.57
2018-07-23T04:14:14.965Z,13.40
2018-07-23T04:16:42.587Z,11.90
2018-07-23T04:19:10.222Z,12.63
2018-07-23T04:21:37.771Z,13.67
2018-07-23T04:24:05.526Z,13.70
2018-07-23T04:26:33.151Z,18.43
2018-07-23T04:29:00.790Z,13.27
2018-07-23T04:31:28.274Z,16.07
2018-07-23T04:33:55.811Z,18.77
2018-07-23T04:36:23.432Z,16.83
2018-07-23T04:38:51.065Z,20.20
2018-07-23T04:41:18.575Z,21.03
2018-07-23T04:43:46.170Z,19.97
2018-07-23T04:46:13.726Z,16.50
2018-07-23T04:48:41.307Z,13.53
2018-07-23T04:51:08.961Z,13.33
2018-07-23T04:53:36.612Z,16.67
2018-07-23T04:56:04.361Z,12.63
2018-07-23T04:58:31.991Z,15.03
2018-07-23T05:00:59.531Z,11.30
2018-07-23T05:03:27.144Z,12.23
2018-07-23T05:05:54.731Z,20.10
2018-07-23T05:08:22.442Z,16.67
2018-07-23T05:10:50.106Z,17.60
2018-07-23T05:13:17.670Z,14.77
2018-07-23T05:15:45.294Z,16.03
2018-07-23T05:18:12.866Z,21.60
2018-07-23T05:20:40.385Z,16.83
2018-07-23T05:23:08.001Z,20.20
2018-07-23T05:25:35.640Z,15.27
2018-07-23T05:28:03.322Z,22.23
2018-07-23T05:30:30.852Z,21.90
2018-07-23T05:32:58.491Z,17.93
2018-07-23T05:35:26.012Z,13.60
2018-07-23T05:37:53.479Z,16.67
2018-07-23T05:40:21.128Z,13.23
2018-07-23T05:42:48.725Z,13.40
2018-07-23T05:45:16.306Z,13.23
2018-07-23T05:47:43.863Z,15.50
2018-07-23T05:50:11.491Z,16.60
2018-07-23T05:52:39.020Z,16.30
2018-07-23T05:55:06.515Z,21.43
2018-07-23T05:57:34.038Z,21.10
2018-07-23T06:00:01.671Z,18.97
2018-07-23T06:02:29.352Z,23.70
2018-07-23T06:04:56.950Z,22.07
2018-07-23T06:07:24.565Z,26.40
2018-07-23T06:09:52.061Z,28.30
2018-07-23T06:12:19.685Z,27.53
2018-07-23T06:14:47.215Z,27.40
2018-07-23T06:17:15.490Z,31.63
2018-07-23T06:20:00.581Z,26.87
2018-07-23T06:22:28.686Z,27.07
2018-07-23T06:24:56.708Z,24.83
2018-07-23T06:27:33.301Z,23.40
2018-07-23T06:30:00.942Z,26.73
2018-07-23T06:32:28.536Z,23.40
2018-07-23T06:34:56.377Z,24.57
2018-07-23T06:37:23.985Z,28.23
2018-07-23T06:39:51.550Z,27.90
2018-07-23T06:42:19.066Z,28.97
2018-07-23T06:44:46.696Z,24.03
2018-07-23T06:47:14.322Z,23.10
2018-07-23T06:49:41.927Z,23.57
2018-07-23T06:52:09.430Z,24.43
2018-07-23T06:54:37.049Z,27.53
2018-07-23T06:57:05.054Z,31.93
2018-07-23T06:59:32.947Z,25.93
2018-07-23T07:02:00.643Z,27.57
2018-07-23T07:17:27.821Z,26.13
2018-07-23T07:19:55.376Z,26.40
2018-07-23T07:22:22.996Z,25.67
2018-07-23T07:24:50.477Z,27.47
2018-07-23T07:27:18.132Z,24.27
2018-07-23T07:29:45.748Z,24.93
2018-07-23T07:32:13.346Z,24.27
2018-07-23T07:34:40.969Z,23.20
2018-07-23T07:37:08.620Z,23.73
2018-07-23T07:39:36.272Z,22.27
2018-07-23T07:42:03.890Z,24.77
2018-07-23T07:44:31.570Z,22.30
2018-07-23T07:46:59.176Z,24.27
2018-07-23T07:49:26.803Z,19.53
2018-07-23T07:51:55.038Z,21.23
2018-07-23T07:54:22.756Z,24.73
2018-07-23T07:56:50.331Z,24.70
2018-07-23T07:59:18.062Z,26.47
2018-07-23T08:01:45.610Z,25.03
2018-07-23T08:04:13.248Z,23.83
2018-07-23T08:06:40.781Z,24.30
2018-07-23T08:09:08.944Z,25.20
2018-07-23T08:11:36.929Z,21.00
2018-07-23T08:14:04.687Z,22.83
2018-07-23T08:16:32.299Z,20.07
2018-07-23T08:18:59.945Z,25.23
2018-07-23T08:21:27.542Z,21.23
2018-07-23T08:23:55.183Z,23.07
2018-07-23T08:26:22.801Z,22.23
2018-07-23T08:28:50.443Z,24.27
2018-07-23T08:31:18.109Z,21.93
2018-07-23T08:33:45.992Z,22.77
2018-07-23T08:36:13.638Z,21.70
2018-07-23T08:38:41.321Z,24.13
2018-07-23T08:41:08.937Z,20.93
2018-07-23T08:43:36.512Z,18.17
2018-07-23T08:46:04.072Z,16.87
2018-07-23T08:48:31.585Z,18.03
2018-07-23T08:50:59.086Z,19.20
2018-07-23T08:53:26.745Z,17.87
2018-07-23T08:55:54.366Z,18.90
2018-07-23T08:58:22.011Z,16.60
2018-07-23T09:00:49.734Z,18.03
2018-07-23T09:03:17.262Z,18.53
2018-07-23T09:05:44.966Z,17.53
2018-07-23T09:08:12.593Z,19.63
2018-07-23T09:10:40.258Z,17.70
2018-07-23T09:13:07.962Z,16.43
2018-07-23T09:15:35.598Z,17.93
2018-07-23T09:18:03.390Z,19.97
2018-07-23T09:20:31.158Z,18.27
2018-07-23T09:22:58.818Z,17.63
2018-07-23T09:25:31.871Z,17.10
2018-07-23T09:27:59.517Z,16.27
2018-07-23T09:30:33.415Z,17.73
2018-07-23T09:33:01.289Z,17.33
2018-07-23T09:35:28.983Z,15.97
2018-07-23T09:37:57.408Z,17.53
2018-07-23T09:40:25.077Z,16.00
2018-07-23T09:42:52.846Z,16.10
2018-07-23T09:45:21.137Z,15.63
2018-07-23T09:47:48.911Z,17.60
2018-07-23T09:50:16.587Z,15.50
2018-07-23T09:52:44.312Z,15.37
2018-07-23T09:55:12.264Z,14.90
2018-07-23T09:57:40.656Z,15.47
2018-07-23T10:00:08.291Z,15.37
2018-07-23T10:02:35.867Z,14.67
2018-07-23T10:05:03.699Z,15.13
2018-07-23T10:07:31.476Z,14.57
2018-07-23T10:09:59.186Z,15.63
2018-07-23T10:12:26.891Z,14.40
2018-07-23T10:14:55.443Z,14.27
2018-07-23T10:17:23.928Z,14.70
2018-07-23T10:19:51.811Z,14.93
2018-07-23T10:22:19.550Z,13.63
2018-07-23T10:24:47.216Z,16.13
2018-07-23T10:27:14.932Z,14.20
2018-07-23T10:29:42.494Z,12.43
2018-07-23T10:32:10.598Z,12.43
2018-07-23T10:34:38.267Z,13.13
2018-07-23T10:37:07.054Z,13.05
2018-07-23T10:39:34.742Z,12.60
2018-07-23T10:42:02.406Z,12.93
2018-07-23T10:44:30.080Z,13.43
2018-07-23T10:46:57.807Z,12.90
2018-07-23T10:49:26.072Z,14.77
2018-07-23T10:51:53.698Z,12.03
2018-07-23T10:54:21.387Z,14.40
2018-07-23T10:56:49.043Z,11.40
2018-07-23T10:59:16.737Z,13.07
2018-07-23T11:01:44.491Z,12.43
2018-07-23T11:04:12.221Z,10.90
2018-07-23T11:06:39.883Z,11.57
2018-07-23T11:09:07.868Z,10.87
2018-07-23T11:11:35.576Z,10.60
2018-07-23T11:14:03.342Z,12.40
2018-07-23T11:16:30.983Z,11.13
2018-07-23T11:18:58.652Z,12.43
2018-07-23T11:21:26.379Z,10.40
2018-07-23T11:23:53.920Z,10.80
2018-07-23T11:26:21.586Z,10.88
2018-07-23T11:28:49.322Z,10.40
2018-07-23T11:31:17.088Z,11.45
2018-07-23T11:33:44.944Z,12.87
2018-07-23T11:36:12.626Z,11.33
2018-07-23T11:38:40.307Z,10.78
2018-07-23T11:41:07.918Z,10.47
2018-07-23T11:43:35.639Z,12.77
2018-07-23T11:46:03.310Z,12.10
2018-07-23T11:48:31.055Z,12.80
2018-07-23T11:50:58.707Z,14.57
2018-07-23T11:53:26.305Z,15.50
2018-07-23T11:55:54.412Z,14.83
2018-07-23T11:58:22.092Z,14.70
2018-07-23T12:00:49.818Z,16.40
2018-07-23T12:03:17.469Z,14.57
2018-07-23T12:05:45.151Z,14.57
2018-07-23T12:08:12.843Z,12.07
2018-07-23T12:10:40.554Z,12.00
2018-07-23T12:13:08.277Z,10.57
2018-07-23T12:15:35.934Z,10.40
2018-07-23T12:18:03.822Z,11.07
2018-07-23T12:20:31.672Z,11.17
2018-07-23T12:22:59.380Z,12.30
2018-07-23T12:25:27.148Z,14.20
2018-07-23T12:27:54.913Z,16.47
2018-07-23T12:30:22.620Z,15.43
2018-07-23T12:32:50.277Z,16.30
2018-07-23T12:35:18.008Z,14.93
2018-07-23T12:37:45.720Z,14.47
2018-07-23T12:40:13.444Z,13.13
2018-07-23T12:42:41.281Z,13.90
2018-07-23T12:45:09.045Z,14.20
2018-07-23T12:47:36.664Z,12.27
2018-07-23T12:50:04.576Z,10.43
2018-07-23T12:52:32.476Z,10.93
2018-07-23T12:55:00.205Z,10.27
2018-07-23T12:57:27.867Z,9.17
2018-07-23T12:59:55.673Z,10.17
2018-07-23T13:02:23.256Z,9.10
2018-07-23T13:04:50.998Z,9.58
2018-07-23T13:07:19.528Z,9.58
2018-07-23T13:09:47.249Z,8.90
2018-07-23T13:12:14.805Z,9.20
2018-07-23T13:14:42.469Z,9.88
2018-07-23T13:17:10.119Z,10.60
2018-07-23T13:19:37.882Z,10.03
2018-07-23T13:22:05.529Z,10.25
2018-07-23T13:24:33.348Z,9.30
2018-07-23T13:27:00.975Z,10.07
2018-07-23T13:29:28.653Z,12.30
2018-07-23T13:31:56.185Z,11.83
2018-07-23T13:34:23.883Z,10.40
2018-07-23T13:36:51.538Z,11.03
2018-07-23T13:39:19.234Z,11.87
2018-07-23T13:41:46.844Z,13.37
2018-07-23T13:44:14.373Z,11.67
2018-07-23T13:46:42.047Z,12.00
2018-07-23T13:49:09.853Z,12.53
2018-07-23T13:51:37.592Z,10.90
2018-07-23T13:54:05.488Z,12.30
2018-07-23T13:56:33.153Z,10.63
2018-07-23T13:59:00.854Z,11.30
2018-07-23T14:01:28.623Z,11.20
2018-07-23T14:03:56.301Z,11.97
2018-07-23T14:06:23.999Z,11.53
2018-07-23T14:08:51.602Z,10.50
2018-07-23T14:11:19.324Z,10.70
2018-07-23T14:13:47.003Z,10.23
2018-07-23T14:16:14.663Z,11.40
2018-07-23T14:18:42.416Z,10.57
2018-07-23T14:21:10.100Z,9.90
2018-07-23T14:23:37.747Z,10.47
2018-07-23T14:26:05.356Z,10.30
2018-07-23T14:28:33.038Z,10.98
2018-07-23T14:31:00.512Z,9.68
2018-07-23T14:33:28.048Z,9.25
2018-07-23T14:35:55.797Z,9.30
2018-07-23T14:38:23.792Z,8.53
2018-07-23T14:40:51.446Z,10.25
2018-07-23T14:43:19.423Z,7.90
2018-07-23T14:45:47.148Z,8.80
2018-07-23T14:48:14.878Z,8.35
2018-07-23T14:50:42.632Z,8.35
2018-07-23T14:53:10.372Z,8.53
2018-07-23T14:55:38.325Z,8.40
2018-07-23T14:58:05.869Z,8.75
2018-07-23T15:00:33.397Z,9.10
2018-07-23T15:03:01.011Z,8.13
2018-07-23T15:05:28.564Z,7.90
2018-07-23T15:07:56.120Z,9.03
2018-07-23T15:10:23.918Z,9.43
2018-07-23T15:12:51.454Z,9.90
2018-07-23T15:15:19.297Z,10.03
2018-07-23T15:17:47.584Z,8.23
2018-07-23T15:20:15.238Z,8.77
2018-07-23T15:22:42.940Z,9.43
2018-07-23T15:25:10.593Z,9.00
2018-07-23T15:27:38.240Z,8.58
2018-07-23T15:30:06.084Z,8.73
2018-07-23T15:32:33.701Z,8.15
2018-07-23T15:35:01.370Z,7.92
2018-07-23T15:37:29.568Z,8.05
2018-07-23T15:39:58.094Z,8.55
2018-07-23T15:42:25.684Z,8.00
2018-07-23T15:44:54.438Z,8.73
2018-07-23T15:47:22.130Z,7.70
2018-07-23T15:49:49.760Z,8.98
2018-07-23T15:52:17.320Z,8.50
2018-07-23T15:54:45.188Z,8.10
2018-07-23T15:57:12.838Z,8.65
2018-07-23T15:59:40.531Z,7.90
2018-07-23T16:02:08.256Z,7.97
2018-07-23T16:04:36.073Z,8.13
2018-07-23T16:07:03.913Z,7.90
2018-07-23T16:09:31.601Z,8.43
2018-07-23T16:11:59.353Z,8.87
2018-07-23T16:14:27.067Z,8.30
2018-07-23T16:16:54.591Z,7.70
2018-07-23T16:19:22.271Z,7.70
2018-07-23T16:21:50.915Z,7.93
2018-07-23T16:24:19.352Z,8.17
2018-07-23T16:26:47.020Z,8.10
2018-07-23T16:29:14.684Z,8.10
2018-07-23T16:31:42.350Z,7.73
2018-07-23T16:34:09.959Z,7.57
2018-07-23T16:36:37.670Z,8.07
2018-07-23T16:39:08.100Z,8.10
2018-07-23T16:41:35.853Z,7.77
2018-07-23T16:44:04.103Z,8.20
2018-07-23T16:46:31.663Z,8.30
2018-07-23T16:48:59.408Z,7.73
2018-07-23T16:51:27.197Z,7.70
2018-07-23T16:53:54.998Z,8.60
2018-07-23T16:56:22.685Z,10.30
2018-07-23T16:58:50.370Z,9.00
2018-07-23T17:01:18.855Z,8.20
2018-07-23T17:03:46.603Z,9.30
2018-07-23T17:06:14.198Z,7.43
2018-07-23T17:08:41.944Z,8.10
2018-07-23T17:11:09.607Z,7.80
2018-07-23T17:13:37.920Z,8.33
2018-07-23T17:16:05.676Z,7.47
2018-07-23T17:18:33.404Z,7.30
2018-07-23T17:21:01.087Z,7.77
2018-07-23T17:23:28.855Z,8.20
2018-07-23T17:25:56.463Z,8.43
2018-07-23T17:28:24.188Z,7.80
2018-07-23T17:30:52.005Z,8.03
2018-07-23T17:33:19.660Z,8.27
2018-07-23T17:35:47.265Z,8.13
2018-07-23T17:38:14.838Z,8.93
2018-07-23T17:40:43.389Z,8.67
2018-07-23T17:43:11.163Z,10.50
2018-07-23T17:45:39.828Z,9.93
2018-07-23T17:48:08.986Z,10.70
2018-07-23T17:50:36.745Z,9.60
2018-07-23T17:53:04.470Z,9.90
2018-07-23T17:55:32.194Z,9.30
2018-07-23T17:57:59.838Z,9.57
2018-07-23T18:00:27.630Z,8.87
2018-07-23T18:02:55.393Z,10.90
2018-07-23T18:05:23.245Z,12.10
2018-07-23T18:07:51.027Z,10.97
2018-07-23T18:10:18.781Z,9.30
2018-07-23T18:12:46.443Z,9.43
2018-07-23T18:15:14.365Z,9.07
2018-07-23T18:17:41.989Z,8.90
2018-07-23T18:20:09.670Z,9.33
2018-07-23T18:22:38.235Z,10.83
2018-07-23T18:25:06.118Z,9.73
2018-07-23T18:27:33.818Z,11.20
2018-07-23T18:30:01.446Z,8.77
2018-07-23T18:32:29.239Z,9.50
2018-07-23T18:34:56.848Z,11.00
2018-07-23T18:37:24.531Z,10.33
2018-07-23T18:39:52.282Z,10.47
2018-07-23T18:42:20.074Z,12.53
2018-07-23T18:44:47.801Z,10.40
2018-07-23T18:47:15.596Z,10.90
2018-07-23T18:49:54.636Z,11.10
2018-07-23T18:52:23.115Z,10.83
2018-07-23T18:54:52.197Z,11.77
2018-07-23T18:57:19.978Z,10.73
2018-07-23T18:59:47.789Z,12.10
2018-07-23T19:02:17.614Z,12.67
2018-07-23T19:04:45.395Z,11.67
2018-07-23T19:07:13.109Z,12.67
2018-07-23T19:09:40.947Z,11.20
2018-07-23T19:12:08.988Z,12.97
2018-07-23T19:14:36.694Z,12.73
2018-07-23T19:17:05.682Z,13.00
2018-07-23T19:19:33.389Z,13.17
2018-07-23T19:22:01.190Z,13.40
2018-07-23T19:24:28.842Z,12.50
2018-07-23T19:26:56.552Z,12.97
2018-07-23T19:29:24.221Z,13.60
2018-07-23T19:31:51.971Z,13.53
2018-07-23T19:34:19.639Z,13.63
2018-07-23T19:36:47.219Z,12.83
2018-07-23T19:39:16.265Z,13.50
2018-07-23T19:41:43.818Z,14.30
2018-07-23T19:44:11.860Z,13.97
2018-07-23T19:46:39.617Z,13.70
2018-07-23T19:49:07.387Z,14.40
2018-07-23T19:51:35.406Z,16.53
2018-07-23T19:54:03.307Z,13.83
2018-07-23T19:56:30.994Z,13.17
2018-07-23T19:58:58.710Z,14.20
2018-07-23T20:01:26.445Z,15.63
2018-07-23T20:03:54.255Z,14.20
2018-07-23T20:06:24.160Z,14.90
2018-07-23T20:08:54.624Z,15.03
2018-07-23T20:11:22.949Z,14.33
2018-07-23T20:13:50.913Z,14.83
2018-07-23T20:16:19.286Z,14.63
2018-07-23T20:18:49.137Z,16.57
2018-07-23T20:21:16.991Z,16.63
2018-07-23T20:23:44.901Z,17.27
2018-07-23T20:26:15.327Z,15.77
2018-07-23T20:28:43.287Z,16.43
2018-07-23T20:31:11.378Z,19.43
2018-07-23T20:33:39.973Z,19.50
2018-07-23T20:36:08.746Z,17.67
2018-07-23T20:38:36.731Z,15.77
2018-07-23T20:41:05.029Z,20.13
2018-07-23T20:43:33.520Z,18.97
2018-07-23T20:46:02.062Z,19.13
2018-07-23T20:48:31.844Z,18.27
2018-07-23T20:51:00.130Z,17.53
2018-07-23T20:53:29.257Z,18.20
2018-07-23T20:55:58.150Z,18.00
2018-07-23T20:58:27.044Z,17.40
2018-07-23T21:00:54.702Z,18.50
2018-07-23T21:03:23.504Z,19.00
2018-07-23T21:05:53.054Z,18.70
2018-07-23T21:08:21.487Z,16.30
2018-07-23T21:10:49.039Z,17.60
2018-07-23T21:13:17.428Z,16.47
2018-07-23T21:15:45.610Z,17.73
2018-07-23T21:18:15.199Z,18.10
2018-07-23T21:20:44.163Z,17.27
2018-07-23T21:23:13.277Z,17.10
2018-07-23T21:25:42.369Z,17.23
2018-07-23T21:28:11.445Z,21.07
2018-07-23T21:30:40.236Z,17.50
2018-07-23T21:33:08.290Z,18.53
2018-07-23T21:35:35.854Z,17.90
2018-07-23T21:38:04.769Z,20.60
2018-07-23T21:40:32.635Z,17.07
2018-07-23T21:43:00.907Z,17.67
2018-07-23T21:45:29.080Z,17.87
2018-07-23T21:47:57.302Z,19.10
2018-07-23T21:50:25.511Z,16.70
2018-07-23T21:52:54.552Z,19.23
2018-07-23T21:55:23.301Z,17.50
2018-07-23T21:57:52.567Z,20.70
2018-07-23T22:00:20.145Z,18.23
2018-07-23T22:02:54.496Z,18.27
2018-07-23T22:05:23.187Z,19.03
2018-07-23T22:07:56.643Z,19.47
2018-07-23T22:10:26.981Z,17.03
2018-07-23T22:12:54.656Z,16.90
2018-07-23T22:15:22.346Z,17.47
2018-07-23T22:17:50.109Z,17.67
2018-07-23T22:20:17.832Z,20.10
2018-07-23T22:22:45.415Z,18.63
2018-07-23T22:25:13.137Z,21.50
2018-07-23T22:27:40.871Z,19.53
2018-07-23T22:30:08.898Z,18.03
2018-07-23T22:32:36.530Z,18.53
2018-07-23T22:35:04.459Z,18.17
2018-07-23T22:37:32.137Z,19.50
2018-07-23T22:39:59.849Z,18.30
2018-07-23T22:42:29.280Z,21.07
2018-07-23T22:44:56.910Z,20.10
2018-07-23T22:47:24.653Z,19.77
2018-07-23T22:49:52.340Z,16.97
2018-07-23T22:52:20.051Z,16.17
2018-07-23T22:54:47.696Z,20.83
2018-07-23T22:57:15.374Z,19.53
2018-07-23T22:59:43.131Z,18.60
2018-07-23T23:02:10.842Z,21.40
2018-07-23T23:04:38.561Z,21.30
2018-07-23T23:07:06.309Z,21.83
2018-07-23T23:09:34.341Z,21.53
2018-07-23T23:12:02.176Z,19.93
2018-07-23T23:14:29.909Z,18.40
2018-07-23T23:16:57.467Z,19.17
2018-07-23T23:19:25.099Z,21.83
2018-07-23T23:21:52.846Z,19.57
2018-07-23T23:24:20.547Z,18.67
2018-07-23T23:26:48.259Z,22.43
2018-07-23T23:29:15.900Z,21.87
2018-07-23T23:31:43.469Z,23.43
2018-07-23T23:34:11.014Z,23.47
2018-07-23T23:36:38.705Z,23.30
2018-07-23T23:39:07.885Z,21.87
2018-07-23T23:41:35.601Z,19.20
2018-07-23T23:44:03.294Z,20.77
2018-07-23T23:46:31.040Z,19.57
2018-07-23T23:48:58.716Z,17.87
2018-07-23T23:51:26.406Z,21.17
2018-07-23T23:53:54.135Z,20.30
2018-07-23T23:56:21.837Z,16.47
2018-07-23T23:58:49.451Z,20.63
